createdAt,value
2018-07-03T00:00:17.084Z,34.28
2018-07-03T00:02:45.693Z,35.16
2018-07-03T00:05:14.346Z,36.70
2018-07-03T00:07:43.295Z,36.70
2018-07-03T00:10:12.688Z,36.65
2018-07-03T00:12:41.365Z,37.30
2018-07-03T00:15:10.025Z,37.45
2018-07-03T00:17:38.813Z,37.42
2018-07-03T00:20:09.188Z,37.66
2018-07-03T00:22:37.821Z,36.99
2018-07-03T00:25:06.403Z,38.04
2018-07-03T00:27:35.207Z,37.75
2018-07-03T00:30:04.060Z,37.63
2018-07-03T00:32:32.683Z,39.90
2018-07-03T00:35:01.400Z,39.83
2018-07-03T00:37:30.049Z,40.26
2018-07-03T00:39:58.784Z,40.41
2018-07-03T00:42:27.808Z,40.95
2018-07-03T00:44:56.389Z,40.60
2018-07-03T00:47:24.988Z,40.20
2018-07-03T00:49:53.842Z,41.11
2018-07-03T00:52:22.448Z,40.87
2018-07-03T00:54:51.056Z,40.93
2018-07-03T00:57:19.755Z,41.10
2018-07-03T00:59:59.381Z,41.53
2018-07-03T01:02:28.012Z,40.96
2018-07-03T01:04:56.700Z,41.68
2018-07-03T01:07:25.347Z,41.87
2018-07-03T01:09:54.196Z,42.22
2018-07-03T01:12:22.928Z,42.34
2018-07-03T01:14:51.752Z,42.04
2018-07-03T01:17:20.731Z,42.07
2018-07-03T01:19:49.407Z,42.49
2018-07-03T01:22:18.507Z,42.59
2018-07-03T01:24:47.247Z,42.57
2018-07-03T01:27:16.093Z,42.85
2018-07-03T01:29:44.723Z,42.99
2018-07-03T01:32:13.675Z,43.20
2018-07-03T01:34:42.571Z,43.58
2018-07-03T01:37:11.188Z,43.71
2018-07-03T01:39:40.376Z,43.44
2018-07-03T01:42:09.079Z,43.53
2018-07-03T01:44:37.785Z,43.93
2018-07-03T01:47:07.127Z,43.90
2018-07-03T01:49:35.881Z,43.07
2018-07-03T01:52:04.544Z,43.03
2018-07-03T01:54:33.151Z,42.70
2018-07-03T01:57:01.713Z,42.88
2018-07-03T01:59:30.616Z,42.72
2018-07-03T02:01:59.279Z,42.94
2018-07-03T02:04:27.873Z,43.14
2018-07-03T02:06:56.671Z,43.28
2018-07-03T02:09:25.293Z,43.16
2018-07-03T02:11:53.980Z,43.18
2018-07-03T02:14:22.620Z,43.39
2018-07-03T02:16:51.349Z,43.80
2018-07-03T02:19:20.037Z,43.88
2018-07-03T02:21:48.653Z,43.61
2018-07-03T02:24:17.479Z,43.86
2018-07-03T02:26:46.092Z,44.07
2018-07-03T02:29:15.049Z,44.51
2018-07-03T02:31:43.749Z,44.15
2018-07-03T02:34:12.280Z,44.62
2018-07-03T02:36:41.861Z,44.48
2018-07-03T02:39:11.985Z,44.98
2018-07-03T02:41:41.196Z,45.04
2018-07-03T02:44:09.821Z,45.49
2018-07-03T02:46:38.555Z,45.40
2018-07-03T02:49:07.427Z,45.69
2018-07-03T02:51:36.080Z,45.38
2018-07-03T02:54:05.008Z,45.46
2018-07-03T02:56:33.645Z,45.94
2018-07-03T02:59:02.228Z,45.72
2018-07-03T03:01:30.978Z,46.11
2018-07-03T03:03:59.920Z,45.78
2018-07-03T03:06:28.587Z,45.77
2018-07-03T03:08:57.628Z,46.09
2018-07-03T03:11:26.367Z,46.78
2018-07-03T03:13:56.449Z,46.65
2018-07-03T03:16:25.261Z,46.32
2018-07-03T03:18:53.961Z,47.00
2018-07-03T03:21:22.608Z,47.53
2018-07-03T03:23:51.693Z,47.39
2018-07-03T03:26:20.504Z,47.61
2018-07-03T03:28:49.225Z,47.26
2018-07-03T03:31:18.055Z,47.40
2018-07-03T03:33:46.761Z,47.37
2018-07-03T03:36:15.392Z,47.39
2018-07-03T03:38:44.339Z,47.27
2018-07-03T03:41:12.948Z,47.68
2018-07-03T03:43:41.556Z,47.19
2018-07-03T03:46:10.220Z,47.51
2018-07-03T03:48:38.817Z,47.37
2018-07-03T03:51:07.650Z,47.42
2018-07-03T03:53:36.780Z,48.02
2018-07-03T03:56:05.831Z,47.56
2018-07-03T03:58:34.611Z,47.48
2018-07-03T04:01:03.471Z,47.75
2018-07-03T04:03:32.167Z,47.24
2018-07-03T04:06:00.973Z,48.01
2018-07-03T04:08:29.693Z,47.53
2018-07-03T04:10:58.320Z,47.83
2018-07-03T04:13:26.903Z,47.15
2018-07-03T04:15:55.936Z,47.29
2018-07-03T04:18:39.988Z,47.12
2018-07-03T04:21:09.481Z,46.75
2018-07-03T04:23:38.876Z,46.27
2018-07-03T04:26:07.764Z,45.63
2018-07-03T04:28:36.677Z,45.86
2018-07-03T04:31:05.477Z,46.05
2018-07-03T04:33:34.104Z,46.42
2018-07-03T04:36:02.831Z,45.88
2018-07-03T04:38:31.540Z,46.05
2018-07-03T04:41:00.159Z,46.03
2018-07-03T04:43:28.985Z,45.38
2018-07-03T04:45:57.652Z,45.64
2018-07-03T04:48:26.224Z,45.80
2018-07-03T04:50:54.947Z,45.85
2018-07-03T04:53:23.592Z,45.85
2018-07-03T04:55:52.124Z,45.96
2018-07-03T04:58:21.200Z,45.21
2018-07-03T05:00:49.715Z,44.85
2018-07-03T05:03:18.339Z,44.75
2018-07-03T05:05:47.360Z,44.50
2018-07-03T05:08:15.987Z,44.71
2018-07-03T05:10:44.583Z,44.39
2018-07-03T05:13:13.260Z,43.41
2018-07-03T05:15:42.025Z,43.19
2018-07-03T05:18:11.281Z,41.78
2018-07-03T05:20:40.220Z,41.53
2018-07-03T05:23:09.020Z,41.16
2018-07-03T05:25:37.644Z,38.98
2018-07-03T05:28:06.373Z,39.52
2018-07-03T05:30:35.047Z,39.77
2018-07-03T05:33:03.901Z,39.59
2018-07-03T05:35:32.827Z,38.33
2018-07-03T05:38:01.529Z,38.12
2018-07-03T05:40:30.256Z,38.65
2018-07-03T05:42:59.137Z,38.06
2018-07-03T05:45:27.847Z,38.11
2018-07-03T05:47:56.512Z,37.21
2018-07-03T05:50:25.467Z,37.05
2018-07-03T05:52:54.100Z,36.79
2018-07-03T05:55:22.679Z,37.23
2018-07-03T05:57:51.415Z,37.38
2018-07-03T06:00:20.109Z,38.03
2018-07-03T06:02:48.733Z,36.44
2018-07-03T06:05:17.864Z,36.39
2018-07-03T06:07:46.531Z,35.52
2018-07-03T06:10:15.116Z,36.08
2018-07-03T06:12:43.857Z,35.72
2018-07-03T06:15:12.891Z,36.25
2018-07-03T06:17:42.076Z,36.04
2018-07-03T06:20:11.239Z,35.48
2018-07-03T06:22:40.292Z,35.96
2018-07-03T06:25:08.833Z,36.43
2018-07-03T06:27:37.516Z,35.49
2018-07-03T06:30:06.175Z,36.38
2018-07-03T06:32:34.734Z,36.57
2018-07-03T06:35:03.720Z,34.57
2018-07-03T06:37:32.433Z,34.41
2018-07-03T06:40:01.424Z,33.89
2018-07-03T06:42:30.117Z,34.58
2018-07-03T06:44:58.806Z,34.35
2018-07-03T06:47:27.356Z,33.44
2018-07-03T06:49:55.952Z,33.86
2018-07-03T06:52:25.670Z,32.65
2018-07-03T06:54:56.439Z,31.85
2018-07-03T06:57:25.987Z,32.13
2018-07-03T06:59:54.672Z,32.06
2018-07-03T07:02:23.756Z,29.58
2018-07-03T07:04:52.544Z,29.46
2018-07-03T07:07:21.227Z,28.68
2018-07-03T07:09:49.896Z,27.59
2018-07-03T07:12:18.856Z,26.66
2018-07-03T07:14:47.553Z,27.02
2018-07-03T07:17:16.741Z,26.42
2018-07-03T07:19:45.433Z,25.12
2018-07-03T07:22:14.321Z,25.20
2018-07-03T07:24:43.200Z,25.42
2018-07-03T07:27:11.836Z,24.72
2018-07-03T07:29:40.886Z,23.89
2018-07-03T07:32:09.552Z,24.04
2018-07-03T07:34:38.309Z,25.32
2018-07-03T07:37:07.045Z,24.87
2018-07-03T07:39:36.205Z,23.78
2018-07-03T07:42:05.132Z,23.78
2018-07-03T07:44:33.855Z,22.52
2018-07-03T07:47:03.009Z,23.53
2018-07-03T07:49:31.658Z,23.32
2018-07-03T07:52:00.324Z,22.50
2018-07-03T07:54:28.931Z,21.99
2018-07-03T07:56:57.707Z,22.07
2018-07-03T07:59:26.313Z,21.84
2018-07-03T08:01:55.026Z,21.37
2018-07-03T08:04:23.631Z,21.62
2018-07-03T08:06:52.312Z,20.72
2018-07-03T08:09:21.069Z,20.19
2018-07-03T08:11:49.828Z,19.67
2018-07-03T08:14:18.521Z,19.62
2018-07-03T08:16:47.208Z,19.78
2018-07-03T08:19:16.086Z,19.02
2018-07-03T08:21:44.676Z,18.85
2018-07-03T08:24:13.810Z,18.60
2018-07-03T08:26:42.696Z,19.11
2018-07-03T08:29:11.335Z,19.08
2018-07-03T08:31:40.364Z,20.05
2018-07-03T08:34:09.019Z,20.19
2018-07-03T08:36:37.588Z,19.39
2018-07-03T08:39:09.327Z,19.00
2018-07-03T08:41:38.040Z,20.07
2018-07-03T08:44:06.733Z,18.27
2018-07-03T08:46:35.652Z,17.98
2018-07-03T08:49:04.827Z,18.52
2018-07-03T08:51:33.498Z,17.21
2018-07-03T08:54:02.232Z,17.10
2018-07-03T08:56:30.871Z,17.15
2018-07-03T08:58:59.672Z,17.65
2018-07-03T09:01:28.589Z,16.91
2018-07-03T09:03:57.236Z,15.47
2018-07-03T09:06:25.943Z,16.18
2018-07-03T09:08:54.844Z,15.81
2018-07-03T09:11:23.603Z,16.21
2018-07-03T09:13:53.688Z,15.02
2018-07-03T09:16:23.479Z,15.38
2018-07-03T09:18:52.153Z,13.42
2018-07-03T09:21:22.124Z,11.30
2018-07-03T09:23:50.925Z,13.30
2018-07-03T09:26:19.772Z,12.11
2018-07-03T09:28:48.809Z,12.80
2018-07-03T09:31:17.656Z,12.12
2018-07-03T09:33:46.793Z,13.67
2018-07-03T09:36:15.429Z,12.00
2018-07-03T09:38:44.205Z,11.69
2018-07-03T09:41:13.132Z,11.77
2018-07-03T09:43:41.820Z,12.37
2018-07-03T09:46:10.877Z,10.01
2018-07-03T09:48:40.764Z,9.73
2018-07-03T09:51:09.375Z,10.00
2018-07-03T09:53:38.361Z,10.87
2018-07-03T09:56:07.574Z,9.61
2018-07-03T09:58:36.372Z,9.79
2018-07-03T10:01:11.101Z,9.24
2018-07-03T10:03:39.792Z,9.19
2018-07-03T10:06:08.408Z,8.92
2018-07-03T10:08:37.235Z,8.46
2018-07-03T10:11:06.044Z,8.47
2018-07-03T10:13:34.577Z,8.55
2018-07-03T10:16:04.500Z,10.52
2018-07-03T10:18:33.482Z,9.69
2018-07-03T10:21:02.801Z,9.77
2018-07-03T10:23:31.612Z,10.43
2018-07-03T10:26:00.676Z,9.41
2018-07-03T10:28:29.331Z,9.20
2018-07-03T10:30:58.912Z,8.06
2018-07-03T10:33:27.536Z,8.95
2018-07-03T10:35:56.275Z,8.68
2018-07-03T10:38:25.149Z,9.20
2018-07-03T10:40:54.455Z,9.03
2018-07-03T10:43:23.219Z,8.92
2018-07-03T10:45:52.124Z,9.38
2018-07-03T10:48:20.676Z,9.49
2018-07-03T10:50:49.415Z,9.72
2018-07-03T10:53:18.042Z,10.39
2018-07-03T10:55:51.177Z,9.76
2018-07-03T10:58:20.076Z,10.19
2018-07-03T11:00:48.709Z,8.81
2018-07-03T11:03:17.530Z,8.85
2018-07-03T11:05:46.141Z,7.81
2018-07-03T11:08:14.881Z,8.23
2018-07-03T11:10:43.444Z,8.00
2018-07-03T11:13:12.491Z,8.90
2018-07-03T11:15:41.208Z,9.37
2018-07-03T11:18:09.927Z,10.04
2018-07-03T11:20:38.639Z,10.48
2018-07-03T11:23:07.180Z,9.82
2018-07-03T11:25:35.895Z,9.14
2018-07-03T11:28:04.519Z,9.71
2018-07-03T11:30:33.067Z,10.71
2018-07-03T11:33:01.764Z,11.02
2018-07-03T11:35:30.498Z,12.05
2018-07-03T11:37:59.199Z,12.66
2018-07-03T11:40:27.810Z,12.79
2018-07-03T11:42:56.569Z,13.35
2018-07-03T11:45:25.152Z,13.02
2018-07-03T11:47:53.736Z,11.74
2018-07-03T11:50:22.410Z,10.39
2018-07-03T11:52:51.108Z,9.89
2018-07-03T11:55:19.841Z,9.83
2018-07-03T11:57:48.443Z,11.13
2018-07-03T12:00:17.567Z,11.28
2018-07-03T12:02:46.331Z,10.98
2018-07-03T12:05:15.299Z,10.42
2018-07-03T12:07:43.942Z,11.38
2018-07-03T12:10:12.720Z,13.21
2018-07-03T12:12:43.592Z,13.42
2018-07-03T12:15:12.144Z,13.86
2018-07-03T12:17:40.840Z,12.68
2018-07-03T12:20:10.395Z,13.40
2018-07-03T12:22:39.009Z,14.16
2018-07-03T12:25:07.722Z,13.80
2018-07-03T12:27:36.649Z,13.60
2018-07-03T12:30:08.149Z,13.72
2018-07-03T12:32:36.765Z,14.79
2018-07-03T12:35:05.658Z,15.93
2018-07-03T12:37:34.232Z,15.74
2018-07-03T12:40:02.963Z,16.39
2018-07-03T12:42:31.583Z,17.06
2018-07-03T12:45:00.631Z,17.02
2018-07-03T12:47:29.860Z,17.34
2018-07-03T12:49:58.485Z,18.27
2018-07-03T12:52:27.285Z,18.91
2018-07-03T12:54:56.275Z,20.38
2018-07-03T12:57:25.044Z,19.97
2018-07-03T12:59:53.727Z,21.08
2018-07-03T13:02:22.679Z,20.47
2018-07-03T13:04:51.303Z,19.45
2018-07-03T13:07:19.886Z,19.65
2018-07-03T13:09:48.512Z,19.44
2018-07-03T13:12:17.152Z,19.06
2018-07-03T13:14:45.738Z,18.98
2018-07-03T13:17:14.456Z,18.69
2018-07-03T13:19:43.068Z,18.92
2018-07-03T13:22:11.668Z,18.98
2018-07-03T13:24:40.252Z,20.22
2018-07-03T13:27:08.855Z,18.98
2018-07-03T13:29:37.456Z,18.87
2018-07-03T13:32:06.472Z,18.48
2018-07-03T13:34:35.123Z,18.66
2018-07-03T13:37:03.735Z,18.37
2018-07-03T13:39:32.455Z,18.83
2018-07-03T13:42:01.029Z,19.03
2018-07-03T13:44:29.975Z,19.17
2018-07-03T13:46:58.803Z,17.78
2018-07-03T13:49:27.441Z,18.27
2018-07-03T13:51:56.119Z,18.83
2018-07-03T13:54:25.051Z,18.43
2018-07-03T13:56:53.588Z,18.35
2018-07-03T13:59:22.135Z,17.26
2018-07-03T14:01:50.826Z,17.71
2018-07-03T14:04:19.768Z,17.04
2018-07-03T14:06:48.315Z,17.43
2018-07-03T14:09:17.172Z,16.53
2018-07-03T14:11:45.764Z,16.23
2018-07-03T14:14:14.484Z,16.36
2018-07-03T14:16:43.279Z,15.97
2018-07-03T14:19:11.870Z,14.49
2018-07-03T14:21:40.620Z,14.12
2018-07-03T14:24:09.253Z,13.82
2018-07-03T14:26:37.881Z,12.62
2018-07-03T14:29:06.894Z,12.80
2018-07-03T14:31:35.485Z,13.25
2018-07-03T14:34:04.092Z,13.46
2018-07-03T14:36:32.734Z,13.35
2018-07-03T14:39:02.110Z,12.60
2018-07-03T14:41:30.650Z,12.45
2018-07-03T14:43:59.660Z,12.27
2018-07-03T14:46:28.584Z,12.22
2018-07-03T14:48:57.122Z,11.77
2018-07-03T14:51:25.810Z,12.17
2018-07-03T14:53:54.424Z,12.31
2018-07-03T14:56:23.075Z,11.16
2018-07-03T14:58:51.984Z,11.62
2018-07-03T15:01:20.708Z,12.47
2018-07-03T15:03:49.339Z,12.84
2018-07-03T15:06:18.085Z,13.31
2018-07-03T15:08:46.855Z,13.15
2018-07-03T15:11:15.490Z,14.18
2018-07-03T15:13:44.071Z,15.81
2018-07-03T15:16:14.035Z,16.37
2018-07-03T15:18:47.882Z,16.23
2018-07-03T15:21:16.634Z,16.92
2018-07-03T15:23:45.279Z,16.31
2018-07-03T15:26:13.851Z,16.34
2018-07-03T15:28:42.719Z,17.32
2018-07-03T15:31:11.796Z,17.37
2018-07-03T15:33:41.336Z,17.92
2018-07-03T15:36:10.935Z,18.17
2018-07-03T15:38:39.554Z,18.68
2018-07-03T15:41:08.672Z,17.65
2018-07-03T15:43:38.067Z,17.82
2018-07-03T15:46:06.711Z,18.14
2018-07-03T15:48:35.331Z,17.73
2018-07-03T15:51:04.983Z,18.74
2018-07-03T15:53:33.974Z,18.85
2018-07-03T15:56:03.773Z,18.89
2018-07-03T15:58:32.779Z,18.93
2018-07-03T16:01:03.345Z,19.48
2018-07-03T16:04:08.322Z,19.71
2018-07-03T16:06:53.114Z,19.79
2018-07-03T16:09:22.152Z,20.65
2018-07-03T16:11:51.783Z,20.01
2018-07-03T16:14:21.303Z,20.65
2018-07-03T16:16:50.038Z,20.43
2018-07-03T16:19:24.821Z,20.80
2018-07-03T16:21:53.450Z,20.40
2018-07-03T16:24:24.708Z,20.41
2018-07-03T16:26:53.754Z,20.59
2018-07-03T16:29:22.363Z,20.19
2018-07-03T16:31:52.751Z,20.93
2018-07-03T16:34:21.527Z,21.30
2018-07-03T16:36:54.536Z,21.73
2018-07-03T16:39:23.347Z,21.93
2018-07-03T16:41:52.196Z,21.91
2018-07-03T16:44:22.443Z,21.88
2018-07-03T16:46:51.229Z,22.48
2018-07-03T16:49:19.879Z,21.85
2018-07-03T16:51:49.267Z,22.61
2018-07-03T16:54:18.999Z,22.89
2018-07-03T16:56:48.394Z,23.19
2018-07-03T16:59:17.379Z,23.02
2018-07-03T17:01:46.728Z,22.18
2018-07-03T17:04:16.311Z,22.87
2018-07-03T17:06:46.147Z,23.40
2018-07-03T17:09:15.106Z,23.18
2018-07-03T17:11:43.864Z,23.87
2018-07-03T17:14:12.563Z,23.15
2018-07-03T17:16:41.791Z,23.63
2018-07-03T17:19:15.699Z,23.58
2018-07-03T17:21:44.613Z,23.75
2018-07-03T17:24:13.331Z,23.65
2018-07-03T17:26:42.010Z,23.62
2018-07-03T17:29:11.074Z,23.77
2018-07-03T17:31:43.791Z,23.15
2018-07-03T17:34:12.522Z,24.29
2018-07-03T17:36:41.215Z,23.83
2018-07-03T17:39:12.344Z,24.01
2018-07-03T17:41:52.125Z,24.17
2018-07-03T17:45:34.434Z,24.96
2018-07-03T17:48:06.178Z,24.95
2018-07-03T17:50:35.384Z,24.83
2018-07-03T17:53:04.336Z,24.70
2018-07-03T17:55:33.729Z,24.57
2018-07-03T17:58:02.359Z,24.79
2018-07-03T18:00:31.415Z,25.03
2018-07-03T18:03:00.382Z,24.96
2018-07-03T18:05:30.274Z,25.46
2018-07-03T18:07:59.311Z,25.31
2018-07-03T18:10:27.892Z,26.39
2018-07-03T18:12:56.811Z,26.43
2018-07-03T18:15:25.474Z,27.06
2018-07-03T18:17:54.055Z,27.07
2018-07-03T18:20:22.862Z,27.63
2018-07-03T18:22:51.427Z,27.60
2018-07-03T18:25:20.785Z,28.09
2018-07-03T18:27:49.563Z,27.69
2018-07-03T18:30:18.139Z,28.47
2018-07-03T18:32:47.641Z,28.49
2018-07-03T18:35:17.174Z,29.19
2018-07-03T18:37:46.552Z,29.76
2018-07-03T18:40:15.267Z,29.52
2018-07-03T18:42:43.925Z,29.91
2018-07-03T18:45:12.708Z,29.23
2018-07-03T18:47:41.445Z,30.22
2018-07-03T18:50:10.488Z,30.09
2018-07-03T18:52:39.055Z,29.84
2018-07-03T18:55:07.824Z,30.54
2018-07-03T18:57:36.636Z,31.46
2018-07-03T19:00:05.961Z,31.43
2018-07-03T19:02:34.491Z,31.52
2018-07-03T19:05:03.511Z,32.11
2018-07-03T19:07:32.074Z,32.03
2018-07-03T19:10:00.748Z,32.66
2018-07-03T19:12:29.703Z,32.01
2018-07-03T19:14:58.335Z,32.73
2018-07-03T19:17:27.111Z,31.92
2018-07-03T19:19:56.036Z,32.14
2018-07-03T19:22:24.712Z,32.75
2018-07-03T19:24:53.278Z,32.80
2018-07-03T19:27:22.007Z,33.60
2018-07-03T19:29:50.658Z,33.53
2018-07-03T19:32:19.526Z,32.55
2018-07-03T19:34:48.259Z,33.89
2018-07-03T19:37:16.993Z,33.18
2018-07-03T19:39:45.606Z,33.18
2018-07-03T19:42:14.194Z,32.98
2018-07-03T19:44:42.843Z,33.86
2018-07-03T19:47:11.541Z,33.99
2018-07-03T19:49:40.610Z,33.94
2018-07-03T19:52:09.224Z,34.22
2018-07-03T19:54:37.963Z,33.85
2018-07-03T19:57:06.835Z,34.52
2018-07-03T19:59:35.487Z,35.51
2018-07-03T20:02:04.215Z,35.84
2018-07-03T20:04:32.993Z,35.17
2018-07-03T20:07:02.067Z,36.07
2018-07-03T20:09:30.832Z,36.77
2018-07-03T20:11:59.950Z,37.69
2018-07-03T20:14:28.528Z,38.80
2018-07-03T20:16:57.202Z,38.43
2018-07-03T20:19:25.936Z,38.93
2018-07-03T20:21:54.818Z,38.95
2018-07-03T20:24:23.681Z,38.74
2018-07-03T20:26:52.608Z,38.21
2018-07-03T20:29:21.142Z,38.64
2018-07-03T20:31:49.999Z,38.73
2018-07-03T20:34:18.912Z,38.38
2018-07-03T20:36:47.623Z,38.21
2018-07-03T20:39:16.386Z,38.56
2018-07-03T20:41:45.335Z,38.50
2018-07-03T20:44:14.570Z,39.50
2018-07-03T20:46:43.267Z,39.34
2018-07-03T20:49:12.313Z,38.96
2018-07-03T20:51:40.962Z,39.08
2018-07-03T20:54:09.608Z,40.00
2018-07-03T20:56:38.278Z,40.12
2018-07-03T20:59:06.920Z,40.85
2018-07-03T21:01:35.623Z,40.13
2018-07-03T21:04:05.036Z,40.26
2018-07-03T21:06:33.683Z,41.09
2018-07-03T21:09:02.369Z,39.53
2018-07-03T21:11:31.350Z,39.75
2018-07-03T21:14:00.233Z,39.58
2018-07-03T21:16:28.828Z,39.70
2018-07-03T21:18:58.076Z,40.40
2018-07-03T21:21:26.827Z,39.79
2018-07-03T21:23:55.407Z,40.01
2018-07-03T21:26:24.256Z,40.26
2018-07-03T21:28:52.943Z,40.81
2018-07-03T21:31:21.662Z,40.22
2018-07-03T21:33:50.471Z,40.92
2018-07-03T21:36:19.140Z,40.85
2018-07-03T21:38:48.051Z,40.47
2018-07-03T21:41:16.750Z,40.50
2018-07-03T21:43:45.506Z,41.08
2018-07-03T21:46:14.095Z,40.78
2018-07-03T21:48:42.906Z,41.39
2018-07-03T21:51:11.792Z,41.49
2018-07-03T21:53:40.375Z,41.38
2018-07-03T21:56:09.790Z,42.40
2018-07-03T21:58:38.542Z,43.10
2018-07-03T22:01:07.133Z,43.10
2018-07-03T22:03:36.012Z,43.35
2018-07-03T22:06:06.611Z,43.37
2018-07-03T22:08:36.337Z,42.98
2018-07-03T22:11:05.199Z,43.48
2018-07-03T22:13:33.736Z,43.37
2018-07-03T22:16:02.867Z,44.43
2018-07-03T22:18:31.714Z,44.47
2018-07-03T22:21:00.388Z,45.12
2018-07-03T22:23:28.945Z,45.33
2018-07-03T22:25:57.561Z,45.39
2018-07-03T22:28:26.162Z,45.41
2018-07-03T22:30:54.851Z,44.68
2018-07-03T22:33:23.512Z,45.36
2018-07-03T22:35:52.231Z,45.14
2018-07-03T22:38:20.834Z,46.56
2018-07-03T22:40:50.237Z,46.55
2018-07-03T22:43:18.919Z,45.99
2018-07-03T22:45:47.647Z,46.71
2018-07-03T22:48:16.415Z,47.22
2018-07-03T22:50:49.070Z,47.08
2018-07-03T22:53:18.018Z,47.28
2018-07-03T22:55:46.710Z,47.60
2018-07-03T22:58:15.544Z,47.22
2018-07-03T23:00:44.358Z,48.05
2018-07-03T23:03:13.077Z,48.04
2018-07-03T23:05:41.694Z,49.08
2018-07-03T23:08:10.348Z,48.89
2018-07-03T23:10:39.473Z,49.51
2018-07-03T23:13:08.398Z,49.05
2018-07-03T23:15:37.180Z,49.13
2018-07-03T23:18:06.110Z,48.37
2018-07-03T23:20:36.091Z,48.49
2018-07-03T23:23:06.505Z,47.42
2018-07-03T23:25:35.236Z,48.90
2018-07-03T23:28:03.947Z,48.65
2018-07-03T23:30:32.507Z,48.96
2018-07-03T23:33:01.557Z,49.06
2018-07-03T23:35:31.097Z,48.56
2018-07-03T23:40:32.238Z,48.90
2018-07-03T23:43:01.594Z,47.99
2018-07-03T23:45:40.963Z,49.18
2018-07-03T23:48:20.799Z,48.05
2018-07-03T23:51:00.849Z,48.26
2018-07-03T23:53:40.783Z,48.01
2018-07-03T23:56:20.651Z,47.60
2018-07-03T23:59:00.433Z,47.56
